Cross City, FL (32628)

2:15 PM EDT on September 02, 2015 (GMT -0400)
Dixie County High School WeatherSTEM | | Change Station
CLOSE
Current Station
Personal Weather Station
Location: Cross City, FL
Elevation: 88 ft
Nearby Weather Stations

Elev 88 ft 29.64 °N, 83.13 °W | Updated 5 minutes ago

Partly Cloudy
Partly Cloudy
88.1 °F
Feels Like 100 °F
N
6.0
Wind Variable Wind from SW
Gusts 10.0 mph

Today
High -- | Low -- °F
--% Chance of Precip.
Yesterday
High -- | Low -- °F
Precip. -- in
7:10 AM 7:53 PM
Waning Gibbous, 78% visible
Pressure 30.05 in
Visibility 10.0 miles
Clouds Scattered Clouds 2800 ft
Heat Index 100 °F
Dew Point 77 °F
Humidity 70%
Rainfall 0.24 in
Snow Depth Not available.
UV 5.6 out of 12
Pollen 6.60 out of 12
Air Quality Not available.
Flu Activity Not available.
METAR K40J 021755Z AUTO 29003KT 10SM SCT028 30/24 A3005 RMK AO2 T02970236 10309 20248
Pressure 30.05 in
Visibility 10.0 miles
Clouds Scattered Clouds 2800 ft
Heat Index 100 °F
Dew Point 77 °F
Humidity 70%
Rainfall 0.24 in
Snow Depth Not available.
UV 5.6 out of 12
Pollen 6.60 out of 12
Air Quality Not available.
Flu Activity Not available.
METAR K40J 021755Z AUTO 29003KT 10SM SCT028 30/24 A3005 RMK AO2 T02970236 10309 20248

10-Day Weather Forecast

×

Almanac

Astronomy

Sep. 02, 2015 Rise Set
Actual Time
Civil Twilight
Nautical Twilight
Astronomical Twilight
Moon
Length of Visible Light
Length of Day
Tomorrow will be .
, % of the Moon is Illuminated

Today's Extremes

State Highs State Lows

Community

WunderPhotos

Upload Photos

1,851,790 photos uploaded!

WunderBlogs® & News

Nearby

Air Quality

  Air Quality AQ Index Pollutant
Not available.

Snow Depth

Station Depth Elevation

Earthquake Activity

City Distance Mag. Time & Date
Minimum magnitude displayed is 2.5.

Coastal Water Temperatures

Place Temperature

Stations

Nearby Weather Stations

Station Location Temp. Windchill Dew Point Humidity Wind Precip. Elev Updated Type